createdAt,value
2019-04-10T00:00:37.364Z,69.16
2019-04-10T00:04:43.255Z,68.37
2019-04-10T00:08:48.518Z,67.56
2019-04-10T00:12:54.137Z,66.91
2019-04-10T00:16:59.021Z,67.37
2019-04-10T00:21:04.979Z,66.96
2019-04-10T00:25:10.714Z,67.11
2019-04-10T00:29:16.150Z,67.10
2019-04-10T00:33:21.058Z,67.16
2019-04-10T00:37:28.486Z,65.88
2019-04-10T00:41:32.581Z,65.83
2019-04-10T00:45:37.708Z,65.78
2019-04-10T00:49:44.192Z,66.02
2019-04-10T00:53:49.757Z,65.37
2019-04-10T00:57:55.220Z,65.06
2019-04-10T01:02:01.063Z,64.53
2019-04-10T01:06:06.019Z,65.01
2019-04-10T01:10:12.497Z,64.74
2019-04-10T01:14:17.891Z,65.12
2019-04-10T01:18:23.876Z,64.52
2019-04-10T01:22:28.791Z,63.98
2019-04-10T01:26:33.686Z,63.24
2019-04-10T01:30:38.597Z,64.34
2019-04-10T01:34:43.509Z,63.03
2019-04-10T01:38:49.513Z,61.40
2019-04-10T01:43:08.246Z,60.95
2019-04-10T01:47:01.009Z,61.75
2019-04-10T01:51:06.705Z,62.11
2019-04-10T01:55:20.096Z,61.81
2019-04-10T01:59:20.193Z,61.26
2019-04-10T02:03:25.698Z,61.99
2019-04-10T02:07:30.684Z,62.22
2019-04-10T02:11:35.583Z,62.12
2019-04-10T02:15:40.510Z,61.58
2019-04-10T02:19:46.104Z,61.21
2019-04-10T02:23:51.123Z,60.42
2019-04-10T02:27:56.386Z,60.72
2019-04-10T02:32:02.069Z,60.84
2019-04-10T02:36:08.441Z,60.51
2019-04-10T02:40:15.035Z,60.26
2019-04-10T02:44:20.619Z,60.35
2019-04-10T02:48:25.538Z,59.40
2019-04-10T02:52:30.886Z,59.38
2019-04-10T02:56:36.652Z,59.47
2019-04-10T03:00:42.109Z,59.01
2019-04-10T03:04:48.932Z,58.73
2019-04-10T03:09:07.936Z,58.63
2019-04-10T03:13:00.853Z,58.54
2019-04-10T03:17:05.999Z,58.63
2019-04-10T03:21:11.041Z,58.94
2019-04-10T03:25:18.374Z,58.71
2019-04-10T03:29:24.077Z,58.78
2019-04-10T03:33:33.100Z,58.39
2019-04-10T03:37:37.375Z,57.88
2019-04-10T03:41:42.298Z,57.96
2019-04-10T03:45:48.642Z,57.83
2019-04-10T03:49:54.058Z,57.70
2019-04-10T03:53:59.042Z,57.70
2019-04-10T03:58:03.976Z,57.12
2019-04-10T04:02:08.878Z,56.82
2019-04-10T04:06:13.811Z,56.42
2019-04-10T04:10:18.906Z,56.61
2019-04-10T04:14:24.200Z,56.86
2019-04-10T04:18:29.226Z,57.06
2019-04-10T04:22:34.114Z,57.33
2019-04-10T04:26:40.117Z,57.28
2019-04-10T04:30:45.724Z,57.26
2019-04-10T04:34:50.567Z,56.38
2019-04-10T04:38:55.507Z,57.37
2019-04-10T04:43:00.391Z,57.59
2019-04-10T04:47:06.285Z,57.05
2019-04-10T04:51:11.301Z,57.13
2019-04-10T04:55:16.201Z,57.01
2019-04-10T04:59:21.131Z,56.84
2019-04-10T05:03:27.007Z,56.69
2019-04-10T05:07:32.046Z,57.02
2019-04-10T05:11:36.980Z,57.16
2019-04-10T05:15:42.949Z,57.68
2019-04-10T05:19:47.854Z,57.63
2019-04-10T05:23:53.371Z,57.72
2019-04-10T05:27:59.358Z,58.61
2019-04-10T05:32:05.113Z,58.06
2019-04-10T05:36:10.162Z,57.84
2019-04-10T05:40:15.267Z,58.45
2019-04-10T05:44:20.261Z,58.18
2019-04-10T05:48:26.376Z,58.10
2019-04-10T05:52:31.430Z,57.84
2019-04-10T05:56:36.482Z,59.10
2019-04-10T06:00:41.344Z,56.54
2019-04-10T06:04:46.262Z,55.63
2019-04-10T06:08:51.205Z,56.99
2019-04-10T06:12:56.091Z,57.41
2019-04-10T06:17:03.954Z,58.14
2019-04-10T06:21:07.630Z,57.91
2019-04-10T06:25:15.318Z,59.00
2019-04-10T06:29:19.271Z,57.96
2019-04-10T06:33:25.569Z,58.77
2019-04-10T06:37:30.778Z,57.53
2019-04-10T06:41:36.817Z,57.52
2019-04-10T06:45:42.013Z,56.95
2019-04-10T06:49:47.881Z,55.31
2019-04-10T06:54:00.829Z,55.36
2019-04-10T06:58:00.742Z,54.62
2019-04-10T07:02:16.661Z,53.94
2019-04-10T07:06:17.656Z,53.64
2019-04-10T07:10:28.611Z,52.47
2019-04-10T07:14:28.713Z,53.30
2019-04-10T07:18:35.866Z,51.80
2019-04-10T07:22:46.607Z,51.43
2019-04-10T07:26:49.293Z,51.44
2019-04-10T07:30:56.844Z,52.82
2019-04-10T07:35:01.903Z,51.71
2019-04-10T07:39:07.838Z,51.00
2019-04-10T07:43:13.273Z,51.48
2019-04-10T07:47:20.513Z,49.84
2019-04-10T07:51:25.630Z,50.43
2019-04-10T07:55:30.944Z,48.68
2019-04-10T07:59:37.563Z,48.01
2019-04-10T08:03:43.757Z,48.19
2019-04-10T08:07:48.805Z,49.40
2019-04-10T08:11:54.451Z,48.95
2019-04-10T08:16:00.696Z,50.00
2019-04-10T08:20:07.915Z,48.40
2019-04-10T08:24:13.505Z,48.84
2019-04-10T08:28:18.465Z,49.29
2019-04-10T08:32:23.676Z,48.67
2019-04-10T08:36:29.638Z,49.83
2019-04-10T08:40:42.411Z,48.76
2019-04-10T08:44:48.654Z,48.88
2019-04-10T08:48:53.949Z,48.62
2019-04-10T08:52:59.916Z,49.95
2019-04-10T08:57:05.994Z,48.53
2019-04-10T09:01:11.200Z,49.19
2019-04-10T09:05:17.437Z,48.32
2019-04-10T09:09:23.672Z,47.99
2019-04-10T09:13:28.633Z,48.42
2019-04-10T09:17:33.565Z,47.02
2019-04-10T09:21:38.869Z,47.33
2019-04-10T09:25:43.892Z,47.72
2019-04-10T09:29:48.814Z,46.45
2019-04-10T09:33:55.703Z,46.72
2019-04-10T09:38:00.604Z,46.66
2019-04-10T09:42:06.727Z,44.37
2019-04-10T09:46:12.733Z,45.23
2019-04-10T09:50:17.790Z,45.06
2019-04-10T09:54:23.793Z,43.90
2019-04-10T09:58:29.576Z,44.89
2019-04-10T10:02:35.712Z,43.26
2019-04-10T10:06:40.653Z,43.71
2019-04-10T10:10:45.714Z,43.23
2019-04-10T10:14:51.797Z,43.06
2019-04-10T10:18:57.411Z,42.53
2019-04-10T10:23:03.326Z,43.23
2019-04-10T10:27:09.376Z,42.38
2019-04-10T10:31:14.432Z,42.22
2019-04-10T10:35:19.416Z,42.60
2019-04-10T10:39:24.325Z,42.46
2019-04-10T10:43:29.329Z,41.76
2019-04-10T10:47:34.228Z,42.08
2019-04-10T10:51:39.231Z,42.76
2019-04-10T10:55:44.164Z,41.92
2019-04-10T10:59:49.436Z,41.18
2019-04-10T11:03:56.332Z,42.08
2019-04-10T11:08:01.262Z,41.48
2019-04-10T11:12:06.694Z,39.69
2019-04-10T11:16:13.072Z,41.70
2019-04-10T11:20:19.972Z,41.05
2019-04-10T11:24:25.489Z,39.51
2019-04-10T11:28:32.280Z,39.88
2019-04-10T11:32:38.037Z,39.98
2019-04-10T11:36:44.050Z,39.75
2019-04-10T11:40:49.688Z,40.16
2019-04-10T11:44:55.486Z,39.94
2019-04-10T11:49:00.959Z,40.16
2019-04-10T11:53:07.039Z,40.24
2019-04-10T11:57:16.172Z,40.95
2019-04-10T12:01:22.830Z,40.96
2019-04-10T12:05:29.135Z,41.44
2019-04-10T12:13:40.792Z,42.26
2019-04-10T12:17:46.513Z,40.91
2019-04-10T12:21:51.556Z,40.25
2019-04-10T12:25:56.486Z,40.10
2019-04-10T12:30:01.409Z,40.44
2019-04-10T12:34:08.797Z,41.07
2019-04-10T12:38:13.747Z,40.62
2019-04-10T12:42:19.747Z,40.28
2019-04-10T12:46:24.705Z,40.20
2019-04-10T12:50:30.679Z,40.20
2019-04-10T12:54:35.694Z,40.38
2019-04-10T12:58:40.606Z,41.86
2019-04-10T13:02:45.521Z,41.50
2019-04-10T13:06:52.597Z,40.09
2019-04-10T13:10:58.080Z,41.42
2019-04-10T13:15:05.371Z,41.60
2019-04-10T13:19:11.200Z,41.01
2019-04-10T13:23:17.672Z,40.18
2019-04-10T13:27:23.105Z,40.25
2019-04-10T13:31:28.044Z,40.25
2019-04-10T13:35:32.951Z,39.86
2019-04-10T13:39:37.874Z,39.68
2019-04-10T13:43:42.821Z,38.91
2019-04-10T13:47:48.548Z,39.86
2019-04-10T13:51:54.551Z,40.09
2019-04-10T13:55:59.486Z,39.22
2019-04-10T14:00:05.848Z,39.84
2019-04-10T14:04:11.219Z,39.39
2019-04-10T14:08:16.670Z,38.74
2019-04-10T14:12:22.821Z,38.66
2019-04-10T14:16:28.718Z,38.35
2019-04-10T14:20:33.655Z,39.09
2019-04-10T14:24:44.171Z,39.91
2019-04-10T14:28:45.600Z,37.91
2019-04-10T14:32:51.489Z,38.05
2019-04-10T14:36:56.894Z,38.11
2019-04-10T14:41:01.878Z,38.65
2019-04-10T14:45:07.529Z,37.15
2019-04-10T14:49:13.217Z,37.08
2019-04-10T14:53:19.276Z,37.48
2019-04-10T14:57:24.379Z,38.15
2019-04-10T15:01:30.246Z,38.76
2019-04-10T15:05:46.542Z,38.87
2019-04-10T15:09:42.920Z,37.56
2019-04-10T15:13:48.746Z,38.18
2019-04-10T15:17:54.156Z,37.95
2019-04-10T15:21:59.183Z,38.12
2019-04-10T15:26:04.195Z,38.00
2019-04-10T15:30:10.525Z,37.79
2019-04-10T15:34:16.182Z,39.41
2019-04-10T15:38:21.992Z,39.25
2019-04-10T15:42:27.821Z,39.11
2019-04-10T15:46:33.201Z,39.80
2019-04-10T15:50:41.348Z,39.61
2019-04-10T15:54:46.457Z,39.05
2019-04-10T15:58:52.120Z,39.87
2019-04-10T16:02:57.426Z,39.23
2019-04-10T16:07:02.331Z,39.27
2019-04-10T16:11:09.843Z,38.63
2019-04-10T16:15:15.282Z,39.26
2019-04-10T16:19:30.969Z,39.29
2019-04-10T16:23:42.153Z,38.30
2019-04-10T16:27:47.883Z,38.34
2019-04-10T16:31:53.214Z,39.69
2019-04-10T16:35:59.020Z,39.12
2019-04-10T16:40:09.762Z,38.71
2019-04-10T16:44:14.788Z,39.65
2019-04-10T16:48:21.011Z,39.28
2019-04-10T16:52:27.054Z,38.70
2019-04-10T16:56:32.109Z,38.40
2019-04-10T17:00:37.678Z,38.37
2019-04-10T17:04:43.785Z,38.37
2019-04-10T17:08:48.758Z,39.10
2019-04-10T17:12:53.943Z,39.29
2019-04-10T17:16:59.042Z,39.32
2019-04-10T17:21:04.761Z,39.79
2019-04-10T17:25:10.078Z,40.81
2019-04-10T17:29:15.017Z,40.69
2019-04-10T17:33:21.008Z,40.54
2019-04-10T17:37:25.934Z,40.83
2019-04-10T17:41:31.396Z,41.08
2019-04-10T17:45:36.633Z,41.78
2019-04-10T17:49:41.551Z,41.53
2019-04-10T17:53:47.405Z,41.71
2019-04-10T17:57:54.518Z,41.50
2019-04-10T18:02:01.219Z,41.13
2019-04-10T18:06:07.069Z,41.44
2019-04-10T18:10:12.001Z,41.99
2019-04-10T18:14:17.398Z,42.05
2019-04-10T18:18:22.407Z,42.52
2019-04-10T18:22:27.339Z,42.74
2019-04-10T18:26:32.257Z,42.97
2019-04-10T18:30:37.606Z,43.47
2019-04-10T18:34:44.446Z,43.30
2019-04-10T18:38:50.094Z,43.45
2019-04-10T18:42:57.616Z,43.86
2019-04-10T18:47:02.851Z,44.14
2019-04-10T18:51:09.429Z,43.86
2019-04-10T18:55:14.356Z,44.19
2019-04-10T18:59:27.038Z,44.43
2019-04-10T19:03:46.180Z,44.57
2019-04-10T19:07:43.094Z,44.39
2019-04-10T19:11:48.313Z,44.53
2019-04-10T19:15:53.375Z,44.65
2019-04-10T19:19:58.800Z,45.12
2019-04-10T19:24:03.860Z,45.51
2019-04-10T19:28:08.739Z,45.37
2019-04-10T19:32:16.249Z,45.19
2019-04-10T19:36:21.285Z,45.21
2019-04-10T19:40:26.199Z,45.42
2019-04-10T19:44:31.133Z,45.63
2019-04-10T19:48:36.163Z,45.86
2019-04-10T19:52:42.002Z,46.07
2019-04-10T19:56:46.926Z,46.54
2019-04-10T20:00:52.689Z,46.98
2019-04-10T20:04:58.764Z,47.33
2019-04-10T20:09:06.324Z,47.65
2019-04-10T20:13:11.523Z,47.75
2019-04-10T20:17:16.627Z,47.95
2019-04-10T20:21:21.514Z,48.44
2019-04-10T20:25:26.486Z,48.68
2019-04-10T20:29:31.388Z,49.01
2019-04-10T20:33:36.289Z,49.29
2019-04-10T20:37:41.202Z,49.54
2019-04-10T20:41:51.972Z,49.42
2019-04-10T20:45:53.719Z,49.40
2019-04-10T20:49:59.586Z,49.67
2019-04-10T20:54:04.614Z,49.75
2019-04-10T20:58:09.534Z,49.93
2019-04-10T21:02:14.442Z,50.11
2019-04-10T21:06:19.377Z,50.25
2019-04-10T21:10:25.480Z,50.55
2019-04-10T21:14:31.656Z,50.72
2019-04-10T21:18:37.727Z,51.34
2019-04-10T21:22:42.816Z,51.61
2019-04-10T21:26:48.515Z,51.67
2019-04-10T21:30:59.075Z,51.85
2019-04-10T21:35:07.454Z,51.80
2019-04-10T21:39:13.729Z,51.84
2019-04-10T21:43:20.278Z,52.26
2019-04-10T21:47:26.320Z,52.53
2019-04-10T21:51:31.220Z,52.65
2019-04-10T21:55:36.133Z,52.78
2019-04-10T21:59:41.043Z,52.89
2019-04-10T22:03:46.940Z,53.41
2019-04-10T22:08:03.091Z,53.75
2019-04-10T22:12:22.213Z,54.08
2019-04-10T22:16:18.052Z,54.17
2019-04-10T22:20:23.569Z,54.33
2019-04-10T22:24:29.762Z,54.39
2019-04-10T22:28:34.749Z,54.68
2019-04-10T22:32:40.698Z,54.70
2019-04-10T22:36:45.771Z,54.75
2019-04-10T22:40:50.674Z,54.81
2019-04-10T22:44:56.565Z,54.91
2019-04-10T22:49:02.005Z,54.91
2019-04-10T22:53:07.063Z,55.08
2019-04-10T22:57:12.521Z,55.07
2019-04-10T23:01:18.526Z,54.99
2019-04-10T23:05:24.549Z,55.24
2019-04-10T23:09:30.583Z,55.37
2019-04-10T23:13:36.258Z,55.10
2019-04-10T23:17:41.217Z,55.07
2019-04-10T23:21:47.043Z,54.98
2019-04-10T23:25:53.252Z,55.00
2019-04-10T23:29:58.167Z,54.88
2019-04-10T23:34:04.092Z,54.90
2019-04-10T23:38:09.208Z,55.06
2019-04-10T23:42:14.883Z,55.05
2019-04-10T23:46:20.129Z,54.86
2019-04-10T23:50:26.041Z,55.17
2019-04-10T23:54:31.197Z,55.21
2019-04-10T23:58:36.113Z,55.35
